createdAt,value
2018-11-25T00:01:51.968Z,67.17
2018-11-25T00:04:22.483Z,63.57
2018-11-25T00:06:53.089Z,67.13
2018-11-25T00:09:23.184Z,65.03
2018-11-25T00:11:53.961Z,67.40
2018-11-25T00:14:24.039Z,67.43
2018-11-25T00:16:54.069Z,62.27
2018-11-25T00:19:23.969Z,63.50
2018-11-25T00:21:54.076Z,62.90
2018-11-25T00:24:24.203Z,63.20
2018-11-25T00:26:54.403Z,63.30
2018-11-25T00:29:24.374Z,63.53
2018-11-25T00:31:54.918Z,67.20
2018-11-25T00:34:25.099Z,65.17
2018-11-25T00:36:56.324Z,67.40
2018-11-25T00:39:26.399Z,68.00
2018-11-25T00:41:56.733Z,69.50
2018-11-25T00:44:26.982Z,66.23
2018-11-25T00:46:57.075Z,67.47
2018-11-25T00:49:27.116Z,68.60
2018-11-25T00:51:57.331Z,68.00
2018-11-25T00:54:27.683Z,69.57
2018-11-25T00:56:58.249Z,75.50
2018-11-25T00:59:28.516Z,72.50
2018-11-25T01:01:58.420Z,82.90
2018-11-25T01:04:31.543Z,78.97
2018-11-25T01:07:01.726Z,75.77
2018-11-25T01:09:31.856Z,76.40
2018-11-25T01:12:02.143Z,69.73
2018-11-25T01:14:32.333Z,72.30
2018-11-25T01:17:03.007Z,67.23
2018-11-25T01:19:33.140Z,66.20
2018-11-25T01:22:03.348Z,67.60
2018-11-25T01:24:33.894Z,66.37
2018-11-25T01:27:03.971Z,66.10
2018-11-25T01:29:33.921Z,65.57
2018-11-25T01:32:04.917Z,68.13
2018-11-25T01:34:35.200Z,64.43
2018-11-25T01:37:05.505Z,68.80
2018-11-25T01:39:36.720Z,63.43
2018-11-25T01:42:07.016Z,66.40
2018-11-25T01:44:37.698Z,65.00
2018-11-25T01:47:09.333Z,65.60
2018-11-25T01:49:39.811Z,63.87
2018-11-25T01:52:09.915Z,65.70
2018-11-25T01:54:39.898Z,63.70
2018-11-25T01:57:10.017Z,63.77
2018-11-25T01:59:40.502Z,61.90
2018-11-25T02:02:10.537Z,66.63
2018-11-25T02:04:41.138Z,68.10
2018-11-25T02:07:11.229Z,65.07
2018-11-25T02:09:41.372Z,63.33
2018-11-25T02:12:12.017Z,68.30
2018-11-25T02:14:42.585Z,66.07
2018-11-25T02:17:13.128Z,66.13
2018-11-25T02:19:43.252Z,66.83
2018-11-25T02:22:13.323Z,66.80
2018-11-25T02:24:43.357Z,65.90
2018-11-25T02:27:13.476Z,73.70
2018-11-25T02:29:43.552Z,65.47
2018-11-25T02:32:13.689Z,69.73
2018-11-25T02:34:43.961Z,69.17
2018-11-25T02:37:14.169Z,65.87
2018-11-25T02:39:44.396Z,68.87
2018-11-25T02:42:14.335Z,66.37
2018-11-25T02:44:44.858Z,68.27
2018-11-25T02:47:15.008Z,64.50
2018-11-25T02:49:45.326Z,65.63
2018-11-25T02:52:16.218Z,64.97
2018-11-25T02:54:46.663Z,66.27
2018-11-25T02:57:20.990Z,62.23
2018-11-25T02:59:51.468Z,63.73
2018-11-25T03:02:22.785Z,61.80
2018-11-25T03:04:52.845Z,62.30
2018-11-25T03:07:23.589Z,64.00
2018-11-25T03:09:53.539Z,63.70
2018-11-25T03:12:23.561Z,67.97
2018-11-25T03:14:53.965Z,65.77
2018-11-25T03:17:24.011Z,66.27
2018-11-25T03:19:54.752Z,64.63
2018-11-25T03:22:24.628Z,63.27
2018-11-25T03:24:54.913Z,62.13
2018-11-25T03:27:24.908Z,66.80
2018-11-25T03:29:55.097Z,61.47
2018-11-25T03:32:26.040Z,67.20
2018-11-25T03:34:56.188Z,63.57
2018-11-25T03:37:26.740Z,63.47
2018-11-25T03:39:56.956Z,63.23
2018-11-25T03:42:27.013Z,65.33
2018-11-25T03:44:56.942Z,63.63
2018-11-25T03:47:27.359Z,66.80
2018-11-25T03:49:57.727Z,63.87
2018-11-25T03:52:27.949Z,64.40
2018-11-25T03:54:57.967Z,63.80
2018-11-25T03:57:28.517Z,60.23
2018-11-25T03:59:59.042Z,67.70
2018-11-25T04:02:29.153Z,61.77
2018-11-25T04:04:59.310Z,63.43
2018-11-25T04:07:29.725Z,63.03
2018-11-25T04:09:59.821Z,60.77
2018-11-25T04:12:30.077Z,65.17
2018-11-25T04:15:00.367Z,62.27
2018-11-25T04:17:31.150Z,64.70
2018-11-25T04:20:01.129Z,65.00
2018-11-25T04:22:31.236Z,65.83
2018-11-25T04:25:01.447Z,62.60
2018-11-25T04:27:31.334Z,59.53
2018-11-25T04:30:01.561Z,62.23
2018-11-25T04:32:32.549Z,64.83
2018-11-25T04:35:02.751Z,67.67
2018-11-25T04:37:32.950Z,60.17
2018-11-25T04:40:03.030Z,67.03
2018-11-25T04:42:33.193Z,60.77
2018-11-25T04:45:03.545Z,65.93
2018-11-25T04:47:33.558Z,62.27
2018-11-25T04:50:06.467Z,60.47
2018-11-25T04:52:36.807Z,60.17
2018-11-25T04:55:07.614Z,62.80
2018-11-25T04:57:37.761Z,66.43
2018-11-25T05:00:11.490Z,61.93
2018-11-25T05:02:42.170Z,61.40
2018-11-25T05:05:14.656Z,60.93
2018-11-25T05:07:44.899Z,59.63
2018-11-25T05:10:16.044Z,57.20
2018-11-25T05:12:46.097Z,58.03
2018-11-25T05:15:20.767Z,57.67
2018-11-25T05:17:51.495Z,64.50
2018-11-25T05:20:22.068Z,61.27
2018-11-25T05:22:52.369Z,61.90
2018-11-25T05:25:22.732Z,62.57
2018-11-25T05:27:52.935Z,62.07
2018-11-25T05:30:23.214Z,57.10
2018-11-25T05:32:53.738Z,60.53
2018-11-25T05:35:23.877Z,56.63
2018-11-25T05:37:53.997Z,58.77
2018-11-25T05:40:24.031Z,61.57
2018-11-25T05:42:54.080Z,59.30
2018-11-25T05:45:23.995Z,58.63
2018-11-25T05:47:54.457Z,61.03
2018-11-25T05:50:25.035Z,60.70
2018-11-25T05:52:54.732Z,56.33
2018-11-25T05:55:24.883Z,57.57
2018-11-25T05:57:55.324Z,56.47
2018-11-25T06:00:33.145Z,59.87
2018-11-25T06:03:03.121Z,57.03
2018-11-25T06:05:33.548Z,61.03
2018-11-25T06:08:03.642Z,57.10
2018-11-25T06:10:34.267Z,57.30
2018-11-25T06:13:04.679Z,58.10
2018-11-25T06:15:34.703Z,59.57
2018-11-25T06:18:05.898Z,56.60
2018-11-25T06:20:36.104Z,58.20
2018-11-25T06:23:06.196Z,57.03
2018-11-25T06:25:36.737Z,59.07
2018-11-25T06:28:07.224Z,56.97
2018-11-25T06:30:37.201Z,60.73
2018-11-25T06:33:07.656Z,56.80
2018-11-25T06:35:38.231Z,57.57
2018-11-25T06:38:08.493Z,60.83
2018-11-25T06:40:38.621Z,60.43
2018-11-25T06:43:09.661Z,61.50
2018-11-25T06:45:39.777Z,57.47
2018-11-25T06:48:10.243Z,58.93
2018-11-25T06:50:40.112Z,57.53
2018-11-25T06:53:10.033Z,56.83
2018-11-25T06:55:40.694Z,56.00
2018-11-25T06:58:10.935Z,59.00
2018-11-25T07:00:41.099Z,61.67
2018-11-25T07:03:11.701Z,57.87
2018-11-25T07:05:41.868Z,58.43
2018-11-25T07:08:12.316Z,57.80
2018-11-25T07:10:43.397Z,57.27
2018-11-25T07:13:13.843Z,59.97
2018-11-25T07:15:44.242Z,58.13
2018-11-25T07:18:14.259Z,58.87
2018-11-25T07:20:44.518Z,57.70
2018-11-25T07:23:14.725Z,57.07
2018-11-25T07:25:44.935Z,54.33
2018-11-25T07:28:18.303Z,54.33
2018-11-25T07:30:45.341Z,55.73
2018-11-25T07:33:15.603Z,58.17
2018-11-25T07:35:45.763Z,54.90
2018-11-25T07:38:15.934Z,58.97
2018-11-25T07:40:46.240Z,58.77
2018-11-25T07:43:16.671Z,56.80
2018-11-25T07:45:47.141Z,56.30
2018-11-25T07:48:17.187Z,58.57
2018-11-25T07:50:47.939Z,57.43
2018-11-25T07:53:18.522Z,59.57
2018-11-25T07:55:48.775Z,56.37
2018-11-25T07:58:19.025Z,58.07
2018-11-25T08:00:49.413Z,55.87
2018-11-25T08:03:19.481Z,60.33
2018-11-25T08:05:49.510Z,57.77
2018-11-25T08:08:19.583Z,59.10
2018-11-25T08:10:49.996Z,55.60
2018-11-25T08:13:19.948Z,56.77
2018-11-25T08:15:49.829Z,61.83
2018-11-25T08:18:19.747Z,64.20
2018-11-25T08:20:49.789Z,60.80
2018-11-25T08:23:19.924Z,62.47
2018-11-25T08:25:50.107Z,61.83
2018-11-25T08:28:20.048Z,57.50
2018-11-25T08:30:50.205Z,61.47
2018-11-25T08:33:20.515Z,63.20
2018-11-25T08:35:50.480Z,62.97
2018-11-25T08:38:20.735Z,63.47
2018-11-25T08:40:51.112Z,71.37
2018-11-25T08:43:21.360Z,73.67
2018-11-25T08:45:51.606Z,69.23
2018-11-25T08:48:21.577Z,73.67
2018-11-25T08:50:53.116Z,68.23
2018-11-25T08:53:23.445Z,68.23
2018-11-25T08:55:54.455Z,69.57
2018-11-25T08:58:24.636Z,68.60
2018-11-25T09:00:55.073Z,69.53
2018-11-25T09:03:26.143Z,67.17
2018-11-25T09:05:56.988Z,64.57
2018-11-25T09:08:27.089Z,68.87
2018-11-25T09:10:57.209Z,58.57
2018-11-25T09:13:27.160Z,59.50
2018-11-25T09:15:57.377Z,63.50
2018-11-25T09:18:27.759Z,63.17
2018-11-25T09:20:57.761Z,61.30
2018-11-25T09:23:27.659Z,58.87
2018-11-25T09:25:58.056Z,60.77
2018-11-25T09:28:28.153Z,59.43
2018-11-25T09:30:58.507Z,60.53
2018-11-25T09:33:28.596Z,64.20
2018-11-25T09:35:58.490Z,62.30
2018-11-25T09:38:28.956Z,65.53
2018-11-25T09:40:59.496Z,66.03
2018-11-25T09:43:29.893Z,65.03
2018-11-25T09:46:00.333Z,65.33
2018-11-25T09:48:30.319Z,59.47
2018-11-25T09:51:00.893Z,60.70
2018-11-25T09:53:31.114Z,59.30
2018-11-25T09:56:01.402Z,59.33
2018-11-25T09:58:32.023Z,59.17
2018-11-25T10:01:02.192Z,62.90
2018-11-25T10:03:32.181Z,57.97
2018-11-25T10:06:02.480Z,60.80
2018-11-25T10:08:33.549Z,60.13
2018-11-25T10:11:03.529Z,59.07
2018-11-25T10:13:33.779Z,59.37
2018-11-25T10:16:04.883Z,57.33
2018-11-25T10:18:35.123Z,60.27
2018-11-25T10:21:05.483Z,59.83
2018-11-25T10:23:35.965Z,59.53
2018-11-25T10:26:06.348Z,60.80
2018-11-25T10:28:36.802Z,58.97
2018-11-25T10:31:07.235Z,61.17
2018-11-25T10:33:37.497Z,59.30
2018-11-25T10:36:08.154Z,59.63
2018-11-25T10:38:38.216Z,64.47
2018-11-25T10:41:08.621Z,64.77
2018-11-25T10:43:38.653Z,62.20
2018-11-25T10:46:08.852Z,61.50
2018-11-25T10:48:39.078Z,65.93
2018-11-25T10:51:09.161Z,62.97
2018-11-25T10:53:39.192Z,60.57
2018-11-25T10:56:09.397Z,66.77
2018-11-25T10:58:39.898Z,60.60
2018-11-25T11:01:15.632Z,60.90
2018-11-25T11:03:51.376Z,58.80
2018-11-25T11:06:26.674Z,64.43
2018-11-25T11:08:57.355Z,59.63
2018-11-25T11:11:27.572Z,62.10
2018-11-25T11:13:57.955Z,60.37
2018-11-25T11:16:28.306Z,59.57
2018-11-25T11:18:58.362Z,60.23
2018-11-25T11:21:28.474Z,60.67
2018-11-25T11:23:58.772Z,60.33
2018-11-25T11:26:28.912Z,62.30
2018-11-25T11:28:59.104Z,59.90
2018-11-25T11:31:29.290Z,63.97
2018-11-25T11:33:59.260Z,67.03
2018-11-25T11:36:29.614Z,63.80
2018-11-25T11:39:00.142Z,61.83
2018-11-25T11:41:30.345Z,61.60
2018-11-25T11:44:00.455Z,61.23
2018-11-25T11:46:31.037Z,59.93
2018-11-25T11:49:01.313Z,64.00
2018-11-25T11:51:31.579Z,61.70
2018-11-25T11:54:02.045Z,62.87
2018-11-25T11:56:39.911Z,59.53
2018-11-25T11:59:02.827Z,59.40
2018-11-25T12:01:33.253Z,64.50
2018-11-25T12:04:03.259Z,60.90
2018-11-25T12:06:33.326Z,59.03
2018-11-25T12:09:03.690Z,59.63
2018-11-25T12:11:33.787Z,59.13
2018-11-25T12:14:03.790Z,62.70
2018-11-25T12:16:34.090Z,60.67
2018-11-25T12:19:04.488Z,62.60
2018-11-25T12:21:35.444Z,61.80
2018-11-25T12:24:05.861Z,63.47
2018-11-25T12:26:36.502Z,59.93
2018-11-25T12:29:07.227Z,60.97
2018-11-25T12:31:37.911Z,64.20
2018-11-25T12:34:07.938Z,62.63
2018-11-25T12:36:38.173Z,61.07
2018-11-25T12:39:09.996Z,59.47
2018-11-25T12:41:40.290Z,60.30
2018-11-25T12:44:10.446Z,60.33
2018-11-25T12:46:40.707Z,61.60
2018-11-25T12:49:11.381Z,60.63
2018-11-25T12:51:42.475Z,61.47
2018-11-25T12:54:12.826Z,61.83
2018-11-25T12:56:44.025Z,60.70
2018-11-25T12:59:13.895Z,62.33
2018-11-25T13:01:44.423Z,62.93
2018-11-25T13:04:14.414Z,64.73
2018-11-25T13:06:44.638Z,61.80
2018-11-25T13:09:14.728Z,60.70
2018-11-25T13:11:52.135Z,63.70
2018-11-25T13:14:16.534Z,63.33
2018-11-25T13:16:46.673Z,59.53
2018-11-25T13:19:16.838Z,61.40
2018-11-25T13:21:47.222Z,59.90
2018-11-25T13:24:17.358Z,62.20
2018-11-25T13:26:47.987Z,62.30
2018-11-25T13:29:18.176Z,62.63
2018-11-25T13:31:48.458Z,59.70
2018-11-25T13:34:19.678Z,62.13
2018-11-25T13:36:49.768Z,63.13
2018-11-25T13:39:19.972Z,61.47
2018-11-25T13:41:50.108Z,60.50
2018-11-25T13:44:19.970Z,59.10
2018-11-25T13:46:50.267Z,61.03
2018-11-25T13:49:20.546Z,59.13
2018-11-25T13:51:50.953Z,61.63
2018-11-25T13:54:21.626Z,60.80
2018-11-25T13:56:52.093Z,62.37
2018-11-25T13:59:22.413Z,60.83
2018-11-25T14:01:52.621Z,59.70
2018-11-25T14:04:22.947Z,61.63
2018-11-25T14:06:53.575Z,60.60
2018-11-25T14:09:25.653Z,59.70
2018-11-25T14:11:58.712Z,58.43
2018-11-25T14:14:29.002Z,59.57
2018-11-25T14:17:05.955Z,59.67
2018-11-25T14:19:36.341Z,57.87
2018-11-25T14:22:07.201Z,61.63
2018-11-25T14:24:37.573Z,56.50
2018-11-25T14:27:09.693Z,60.90
2018-11-25T14:29:41.131Z,58.10
2018-11-25T14:32:11.453Z,55.93
2018-11-25T14:34:41.685Z,59.87
2018-11-25T14:37:12.191Z,59.43
2018-11-25T14:39:42.421Z,56.77
2018-11-25T14:42:12.910Z,58.83
2018-11-25T14:44:43.780Z,62.60
2018-11-25T14:47:14.029Z,59.73
2018-11-25T14:49:44.260Z,61.43
2018-11-25T14:52:14.269Z,69.77
2018-11-25T14:54:51.173Z,57.17
2018-11-25T14:57:15.754Z,57.13
2018-11-25T14:59:46.616Z,60.23
2018-11-25T15:02:16.717Z,59.53
2018-11-25T15:04:46.814Z,58.27
2018-11-25T15:07:17.421Z,59.17
2018-11-25T15:09:47.846Z,59.80
2018-11-25T15:12:18.764Z,56.17
2018-11-25T15:14:49.042Z,58.63
2018-11-25T15:17:19.951Z,61.17
2018-11-25T15:19:50.482Z,55.37
2018-11-25T15:22:21.441Z,60.23
2018-11-25T15:24:52.658Z,57.33
2018-11-25T15:27:23.210Z,60.47
2018-11-25T15:29:53.312Z,61.77
2018-11-25T15:32:24.172Z,61.90
2018-11-25T15:35:00.872Z,66.30
2018-11-25T15:37:32.812Z,60.73
2018-11-25T15:40:04.962Z,58.73
2018-11-25T15:42:35.459Z,63.73
2018-11-25T15:45:06.500Z,59.17
2018-11-25T15:47:36.642Z,60.07
2018-11-25T15:50:11.083Z,62.97
2018-11-25T15:52:42.831Z,62.70
2018-11-25T15:55:14.652Z,63.97
2018-11-25T15:57:44.636Z,65.57
2018-11-25T16:00:17.879Z,60.97
2018-11-25T16:02:48.456Z,61.57
2018-11-25T16:05:24.384Z,61.57
2018-11-25T16:07:54.838Z,67.33
2018-11-25T16:10:24.835Z,65.00
2018-11-25T16:12:55.586Z,68.60
2018-11-25T16:15:27.450Z,65.87
2018-11-25T16:17:57.960Z,64.67
2018-11-25T16:20:28.995Z,60.60
2018-11-25T16:23:05.492Z,62.70
2018-11-25T16:25:43.125Z,59.27
2018-11-25T16:28:48.432Z,61.17
2018-11-25T16:31:19.115Z,59.57
2018-11-25T16:33:49.429Z,61.53
2018-11-25T16:36:27.170Z,58.90
2018-11-25T16:38:57.184Z,62.27
2018-11-25T16:41:27.227Z,61.43
2018-11-25T16:43:57.743Z,58.73
2018-11-25T16:46:28.175Z,62.27
2018-11-25T16:48:58.504Z,65.30
2018-11-25T16:51:29.218Z,64.60
2018-11-25T16:54:01.532Z,64.70
2018-11-25T16:56:31.546Z,74.47
2018-11-25T16:59:01.878Z,71.20
2018-11-25T17:01:32.278Z,69.17
2018-11-25T17:04:02.541Z,72.50
2018-11-25T17:06:33.584Z,69.83
2018-11-25T17:09:05.518Z,65.57
2018-11-25T17:11:36.892Z,67.60
2018-11-25T17:14:08.270Z,62.17
2018-11-25T17:16:38.296Z,61.97
2018-11-25T17:19:08.432Z,66.10
2018-11-25T17:21:38.844Z,60.93
2018-11-25T17:24:08.909Z,61.77
2018-11-25T17:26:39.186Z,57.17
2018-11-25T17:29:09.424Z,61.77
2018-11-25T17:31:39.519Z,61.10
2018-11-25T17:34:09.433Z,61.90
2018-11-25T17:36:39.630Z,61.33
2018-11-25T17:39:10.651Z,62.17
2018-11-25T17:41:41.684Z,62.73
2018-11-25T17:44:13.801Z,62.53
2018-11-25T17:46:44.104Z,63.30
2018-11-25T17:49:14.589Z,74.77
2018-11-25T17:51:44.660Z,62.90
2018-11-25T17:54:14.638Z,62.43
2018-11-25T17:56:44.802Z,61.57
2018-11-25T17:59:15.488Z,66.60
2018-11-25T18:01:45.948Z,67.80
2018-11-25T18:04:16.504Z,64.17
2018-11-25T18:06:46.704Z,72.10
2018-11-25T18:09:17.036Z,70.23
2018-11-25T18:11:47.584Z,72.10
2018-11-25T18:14:17.967Z,71.33
2018-11-25T18:16:48.202Z,75.00
2018-11-25T18:19:22.288Z,77.90
2018-11-25T18:22:29.582Z,70.07
2018-11-25T18:25:00.299Z,60.13
2018-11-25T18:27:30.630Z,60.77
2018-11-25T18:30:01.026Z,62.23
2018-11-25T18:32:30.973Z,57.60
2018-11-25T18:35:10.407Z,54.67
2018-11-25T18:37:40.603Z,57.67
2018-11-25T18:40:15.171Z,61.70
2018-11-25T18:42:45.690Z,56.13
2018-11-25T18:45:18.292Z,57.50
2018-11-25T18:47:49.882Z,57.87
2018-11-25T18:50:21.643Z,57.00
2018-11-25T18:52:53.647Z,54.13
2018-11-25T18:55:21.512Z,54.10
2018-11-25T18:57:52.419Z,55.33
2018-11-25T19:00:32.330Z,57.87
2018-11-25T19:03:02.667Z,51.77
2018-11-25T19:05:33.020Z,52.50
2018-11-25T19:08:04.207Z,51.63
2018-11-25T19:10:34.806Z,52.33
2018-11-25T19:13:05.257Z,54.47
2018-11-25T19:15:35.513Z,52.83
2018-11-25T19:18:06.050Z,54.87
2018-11-25T19:20:36.304Z,51.23
2018-11-25T19:23:07.073Z,53.33
2018-11-25T19:25:37.599Z,55.53
2018-11-25T19:28:10.202Z,55.13
2018-11-25T19:30:41.713Z,57.87
2018-11-25T19:33:12.199Z,54.83
2018-11-25T19:35:42.439Z,55.40
2018-11-25T19:38:12.357Z,56.23
2018-11-25T19:40:42.609Z,53.60
2018-11-25T19:43:13.424Z,53.73
2018-11-25T19:45:43.347Z,52.20
2018-11-25T19:48:13.306Z,53.53
2018-11-25T19:50:43.917Z,54.43
2018-11-25T19:53:13.985Z,55.00
2018-11-25T19:55:44.266Z,53.20
2018-11-25T19:58:16.570Z,54.00
2018-11-25T20:00:46.882Z,55.90
2018-11-25T20:03:17.344Z,55.43
2018-11-25T20:05:48.154Z,53.50
2018-11-25T20:08:18.994Z,55.20
2018-11-25T20:10:49.240Z,53.77
2018-11-25T20:13:19.339Z,52.77
2018-11-25T20:15:49.591Z,52.97
2018-11-25T20:18:19.727Z,52.63
2018-11-25T20:20:54.892Z,53.07
2018-11-25T20:23:25.193Z,52.30
2018-11-25T20:25:55.648Z,53.23
2018-11-25T20:28:25.797Z,50.87
2018-11-25T20:30:56.383Z,54.67
2018-11-25T20:33:32.036Z,51.50
2018-11-25T20:36:02.342Z,52.90
2018-11-25T20:38:37.503Z,52.37
2018-11-25T20:41:07.595Z,53.83
2018-11-25T20:43:37.457Z,53.00
2018-11-25T20:46:13.254Z,55.23
2018-11-25T20:48:43.523Z,49.80
2018-11-25T20:51:14.268Z,51.63
2018-11-25T20:53:49.847Z,52.43
2018-11-25T20:56:19.835Z,53.23
2018-11-25T20:58:49.695Z,55.50
2018-11-25T21:01:20.045Z,52.40
2018-11-25T21:03:50.177Z,53.63
2018-11-25T21:06:21.062Z,50.83
2018-11-25T21:08:52.021Z,54.23
2018-11-25T21:11:22.678Z,54.17
2018-11-25T21:13:53.560Z,54.93
2018-11-25T21:16:23.715Z,54.57
2018-11-25T21:18:54.084Z,55.77
2018-11-25T21:21:24.276Z,55.60
2018-11-25T21:23:55.315Z,53.07
2018-11-25T21:26:25.520Z,56.37
2018-11-25T21:28:55.599Z,56.03
2018-11-25T21:31:27.101Z,55.27
2018-11-25T21:33:57.116Z,54.93
2018-11-25T21:36:27.341Z,55.47
2018-11-25T21:38:57.509Z,54.57
2018-11-25T21:41:27.775Z,54.23
2018-11-25T21:43:58.579Z,55.43
2018-11-25T21:46:28.872Z,57.70
2018-11-25T21:48:59.191Z,54.30
2018-11-25T21:51:30.048Z,54.43
2018-11-25T21:54:00.760Z,55.13
2018-11-25T21:56:30.934Z,57.27
2018-11-25T21:59:01.162Z,56.13
2018-11-25T22:01:31.722Z,57.77
2018-11-25T22:04:01.886Z,55.27
2018-11-25T22:06:34.086Z,53.93
2018-11-25T22:09:04.271Z,55.13
2018-11-25T22:11:34.520Z,58.77
2018-11-25T22:14:05.820Z,58.83
2018-11-25T22:16:36.066Z,56.30
2018-11-25T22:19:06.374Z,53.40
2018-11-25T22:21:36.593Z,56.90
2018-11-25T22:24:07.820Z,57.43
2018-11-25T22:26:39.874Z,55.20
2018-11-25T22:29:09.968Z,55.43
2018-11-25T22:31:40.427Z,55.77
2018-11-25T22:34:11.416Z,56.50
2018-11-25T22:36:42.479Z,57.37
2018-11-25T22:39:13.215Z,55.27
2018-11-25T22:41:44.018Z,57.47
2018-11-25T22:44:14.360Z,56.83
2018-11-25T22:46:45.196Z,56.80
2018-11-25T22:49:15.357Z,53.53
2018-11-25T22:51:45.689Z,54.27
2018-11-25T22:54:15.963Z,52.90
2018-11-25T22:56:47.049Z,55.17
2018-11-25T22:59:17.128Z,58.20
2018-11-25T23:01:47.184Z,54.40
2018-11-25T23:06:41.258Z,52.30
2018-11-25T23:09:11.411Z,52.13
2018-11-25T23:11:41.499Z,54.30
2018-11-25T23:14:12.960Z,52.40
2018-11-25T23:16:43.411Z,54.60
2018-11-25T23:19:13.823Z,52.27
2018-11-25T23:21:44.264Z,55.47
2018-11-25T23:24:15.057Z,55.33
2018-11-25T23:26:45.085Z,52.50
2018-11-25T23:29:15.509Z,52.17
2018-11-25T23:31:46.501Z,55.83
2018-11-25T23:34:17.208Z,56.33
2018-11-25T23:36:47.779Z,55.10
2018-11-25T23:39:18.138Z,53.57
2018-11-25T23:41:48.229Z,53.77
2018-11-25T23:44:18.792Z,52.47
2018-11-25T23:46:49.730Z,52.77
2018-11-25T23:49:19.860Z,54.97
2018-11-25T23:51:50.100Z,53.03
2018-11-25T23:54:20.261Z,53.40
2018-11-25T23:56:50.765Z,55.63
2018-11-25T23:59:21.078Z,58.23
